Time;durP1;ratioP1;P1;durP2;ratioP2;P2;SDS_P1;SDS_P2;PMS_P1;PMS_P2;Temp;Humidity;BMP_temperature;BMP_pressure;BME280_temperature;BME280_humidity;BME280_pressure;Samples;Min_cycle;Max_cycle;Signal;HPM_P1;HPM_P2
2022/04/28 00:01:02;;;;;;;10.18;6.80;;;;;;;7.04;80.34;101220.49;1736035;82;21212;-58
2022/04/28 00:04:08;;;;;;;10.63;7.05;;;;;;;7.02;80.37;101225.20;1736019;82;21209;-57
2022/04/28 00:07:15;;;;;;;11.35;6.75;;;;;;;7.00;80.44;101225.81;1736018;82;21216;-59
2022/04/28 00:10:22;;;;;;;9.23;6.60;;;;;;;6.94;80.22;101229.95;1735997;82;21188;-58
2022/04/28 00:13:28;;;;;;;11.00;6.33;;;;;;;6.88;80.33;101228.25;1736030;82;21219;-57
2022/04/28 00:16:35;;;;;;;9.40;6.80;;;;;;;6.84;80.48;101234.94;1735970;82;21201;-57
2022/04/28 00:19:41;;;;;;;8.25;6.12;;;;;;;6.80;80.59;101234.33;1736102;82;21358;-58
2022/04/28 00:22:47;;;;;;;12.03;6.53;;;;;;;6.75;80.61;101232.52;1736027;82;21362;-58
2022/04/28 00:25:54;;;;;;;12.68;6.70;;;;;;;6.71;80.70;101241.92;1736027;82;21236;-58
2022/04/28 00:29:00;;;;;;;11.25;7.15;;;;;;;6.70;80.92;101240.20;1735973;82;21232;-58
2022/04/28 00:32:06;;;;;;;12.68;7.28;;;;;;;6.69;81.06;101241.17;1735991;82;21177;-58
2022/04/28 00:35:12;;;;;;;8.13;6.33;;;;;;;6.68;81.05;101246.27;1735901;82;21203;-57
2022/04/28 00:38:18;;;;;;;13.32;7.25;;;;;;;6.66;81.09;101249.60;1735915;82;21232;-58
2022/04/28 00:41:25;;;;;;;10.40;6.78;;;;;;;6.64;81.22;101248.89;1735956;82;21189;-58
2022/04/28 00:44:31;;;;;;;8.78;6.47;;;;;;;6.64;81.32;101255.70;1718873;82;21212;-58
2022/04/28 00:51:08;;;;;;;9.68;6.60;;;;;;;6.56;81.10;101247.31;1736006;82;21177;-58
2022/04/28 00:54:14;;;;;;;10.15;6.60;;;;;;;6.49;81.15;101247.45;1735992;82;21248;-57
2022/04/28 00:57:20;;;;;;;12.55;6.60;;;;;;;6.44;81.19;101255.64;1720079;82;21264;-58
2022/04/28 01:00:26;;;;;;;12.90;6.92;;;;;;;6.39;81.35;101254.64;1717900;82;21256;-56
2022/04/28 01:03:31;;;;;;;11.25;7.40;;;;;;;6.39;81.71;101262.80;1740707;82;21198;-58
2022/04/28 01:06:38;;;;;;;10.25;6.92;;;;;;;6.39;81.85;101261.44;1740686;82;21204;-57
2022/04/28 01:09:46;;;;;;;11.08;6.78;;;;;;;6.37;81.89;101258.01;1716032;82;21188;-58
2022/04/28 01:12:54;;;;;;;11.08;7.05;;;;;;;6.36;81.92;101263.58;1740661;82;21263;-59
2022/04/28 01:16:04;;;;;;;10.63;6.92;;;;;;;6.35;82.02;101254.55;1740635;82;21208;-57
2022/04/28 01:19:10;;;;;;;12.80;6.70;;;;;;;6.35;82.06;101255.91;1740734;82;21263;-57
2022/04/28 01:22:15;;;;;;;10.30;7.55;;;;;;;6.31;81.85;101253.05;1740636;82;21204;-59
2022/04/28 01:25:21;;;;;;;12.10;7.75;;;;;;;6.27;81.96;101252.08;1740677;82;21200;-57
2022/04/28 01:28:28;;;;;;;14.75;8.38;;;;;;;6.27;82.09;101256.16;1740551;82;21192;-57
2022/04/28 01:31:34;;;;;;;11.80;8.00;;;;;;;6.24;82.06;101248.27;1740681;82;21212;-58
2022/04/28 01:34:41;;;;;;;13.43;7.30;;;;;;;6.19;81.96;101245.92;1715882;82;21339;-58
2022/04/28 01:37:50;;;;;;;12.60;8.53;;;;;;;6.14;81.97;101249.52;1740805;82;21291;-58
2022/04/28 01:40:56;;;;;;;15.75;9.15;;;;;;;6.09;82.08;101251.27;1740672;82;21188;-59
2022/04/28 01:44:02;;;;;;;15.23;8.38;;;;;;;6.06;82.10;101251.52;1740682;82;21200;-58
2022/04/28 01:47:10;;;;;;;12.68;8.33;;;;;;;6.02;82.17;101254.61;1740679;82;21205;-60
2022/04/28 01:50:27;;;;;;;12.70;7.72;;;;;;;5.97;82.29;101255.00;1710291;82;21199;-58
2022/04/28 01:57:00;;;;;;;12.28;7.75;;;;;;;5.97;82.71;101248.69;1740668;82;21212;-59
2022/04/28 02:00:13;;;;;;;12.10;7.78;;;;;;;5.94;82.66;101256.61;1681581;82;21264;-60
2022/04/28 02:03:21;;;;;;;14.35;7.10;;;;;;;5.93;82.80;101264.37;1740734;82;21367;-58
2022/04/28 02:06:28;;;;;;;10.08;6.75;;;;;;;5.92;82.92;101258.58;1740592;82;21188;-59
2022/04/28 02:09:36;;;;;;;10.38;6.87;;;;;;;5.90;82.77;101252.88;1740647;82;21243;-58
2022/04/28 02:12:43;;;;;;;9.53;6.70;;;;;;;5.85;82.67;101253.78;1740669;82;21236;-57
2022/04/28 02:15:58;;;;;;;14.13;6.55;;;;;;;5.85;82.84;101257.85;1740711;82;21196;-59
2022/04/28 02:19:16;;;;;;;10.70;6.50;;;;;;;5.84;82.91;101256.10;1709956;82;21213;-58
2022/04/28 02:22:22;;;;;;;11.65;7.03;;;;;;;5.81;82.81;101252.24;1715574;82;21185;-59
2022/04/28 02:25:30;;;;;;;11.83;6.70;;;;;;;5.75;82.62;101251.39;1740597;82;21164;-59
2022/04/28 02:28:37;;;;;;;11.70;7.12;;;;;;;5.70;82.60;101249.05;1740617;82;21204;-60
2022/04/28 02:31:44;;;;;;;12.98;6.80;;;;;;;5.67;82.73;101253.38;1740713;82;21184;-59
2022/04/28 02:34:53;;;;;;;10.40;6.50;;;;;;;5.64;82.78;101254.11;1740571;82;21256;-57
2022/04/28 02:38:00;;;;;;;14.28;6.65;;;;;;;5.65;83.10;101249.03;1740557;82;21208;-57
2022/04/28 02:41:06;;;;;;;10.13;6.28;;;;;;;5.68;83.39;101254.22;1740634;82;21208;-59
2022/04/28 02:44:14;;;;;;;9.13;6.28;;;;;;;5.71;83.62;101259.40;1740587;82;21228;-58
2022/04/28 02:47:21;;;;;;;8.15;5.58;;;;;;;5.74;83.60;101267.33;1740614;82;21172;-58
2022/04/28 02:50:27;;;;;;;14.45;6.67;;;;;;;5.76;83.51;101266.69;1740653;82;21327;-59
2022/04/28 02:53:34;;;;;;;11.43;6.40;;;;;;;5.75;83.43;101270.41;1740587;82;21228;-58
2022/04/28 02:56:41;;;;;;;11.18;6.58;;;;;;;5.76;83.58;101269.41;1715833;82;21184;-59
2022/04/28 02:59:47;;;;;;;9.15;6.35;;;;;;;5.79;83.63;101272.75;1740642;82;21216;-58
2022/04/28 03:02:57;;;;;;;7.40;5.60;;;;;;;5.83;83.83;101274.77;1732634;82;21275;-58
2022/04/28 03:12:56;;;;;;;8.50;5.75;;;;;;;6.02;83.98;101281.79;1735791;82;21244;-57
2022/04/28 03:16:03;;;;;;;10.68;6.25;;;;;;;6.10;84.05;101285.59;1705550;82;21204;-59
2022/04/28 03:19:14;;;;;;;9.58;5.25;;;;;;;6.19;83.95;101283.98;1734797;82;21256;-59
2022/04/28 03:22:21;;;;;;;9.40;5.67;;;;;;;6.29;83.82;101287.69;1715265;82;21197;-59
2022/04/28 03:25:26;;;;;;;133.07;83.40;;;;;;;6.39;83.68;101285.91;1706242;84;21792;-54
2022/04/28 03:28:35;;;;;;;28.55;17.85;;;;;;;6.50;83.46;101287.77;1706408;83;21204;-57
2022/04/28 03:31:41;;;;;;;13.30;8.40;;;;;;;6.61;83.27;101292.66;1705825;84;21208;-57
2022/04/28 03:34:53;;;;;;;;;;;;;;;6.72;83.16;101291.28;1709118;84;21236;-58
2022/04/28 03:37:59;;;;;;;17.92;10.58;;;;;;;6.84;83.04;101290.23;1701599;84;20201;-56
2022/04/28 03:41:06;;;;;;;54.90;39.38;;;;;;;6.94;82.97;101289.83;1713788;82;22008;-56
2022/04/28 03:44:13;;;;;;;19.75;14.07;;;;;;;7.08;82.85;101294.08;1730234;83;21233;-56
2022/04/28 03:47:19;;;;;;;10.18;6.85;;;;;;;7.22;82.69;101293.75;1730232;83;21359;-57
2022/04/28 03:50:28;;;;;;;7.67;5.25;;;;;;;7.34;82.37;101299.00;1730429;83;21212;-57
2022/04/28 03:53:33;;;;;;;13.75;5.15;;;;;;;7.45;82.01;101300.29;1729907;83;21276;-56
2022/04/28 03:56:39;;;;;;;6.72;5.03;;;;;;;7.59;81.71;101305.91;1730159;83;21267;-57
2022/04/28 03:59:48;;;;;;;8.58;5.20;;;;;;;7.72;81.25;101301.61;1730199;83;21226;-57
2022/04/28 04:02:58;;;;;;;7.53;4.50;;;;;;;7.85;80.58;101306.34;1709169;81;21244;-57
2022/04/28 04:06:04;;;;;;;8.35;4.58;;;;;;;7.97;79.90;101307.97;1730347;83;21176;-58
2022/04/28 04:09:11;;;;;;;10.32;4.37;;;;;;;8.10;79.38;101308.13;1704826;83;21808;-57
2022/04/28 04:12:19;;;;;;;6.97;4.35;;;;;;;8.25;78.79;101313.58;1690225;84;21205;-56
2022/04/28 04:15:37;;;;;;;11.18;4.75;;;;;;;8.38;78.09;101310.11;1694723;83;21244;-57
2022/04/28 04:18:48;;;;;;;7.70;4.28;;;;;;;8.52;77.59;101311.08;1714223;83;21405;-58
2022/04/28 04:21:54;;;;;;;7.05;4.50;;;;;;;8.67;76.97;101317.00;1719764;83;21203;-57
2022/04/28 04:25:03;;;;;;;7.42;4.40;;;;;;;8.81;76.04;101320.19;1716413;83;21342;-58
2022/04/28 04:28:11;;;;;;;8.13;4.33;;;;;;;8.96;74.95;101315.14;1714028;83;21247;-58
2022/04/28 04:34:53;;;;;;;8.55;4.03;;;;;;;9.28;73.16;101319.83;1739397;82;21208;-59
2022/04/28 04:38:03;;;;;;;11.30;4.72;;;;;;;9.44;72.12;101320.11;1741670;82;21228;-56
2022/04/28 04:41:11;;;;;;;8.43;3.50;;;;;;;9.60;71.17;101320.38;1711159;82;21252;-56
2022/04/28 04:44:17;;;;;;;5.92;3.60;;;;;;;9.74;69.83;101324.00;1742554;82;21195;-56
2022/04/28 04:47:22;;;;;;;7.70;3.00;;;;;;;9.88;68.53;101324.02;1710837;83;21287;-55
2022/04/28 04:50:30;;;;;;;7.62;3.33;;;;;;;10.01;67.14;101328.17;1742166;82;21227;-57
2022/04/28 04:53:46;;;;;;;5.83;3.35;;;;;;;10.14;65.83;101326.01;1710762;84;21224;-55
2022/04/28 04:56:51;;;;;;;4.75;2.90;;;;;;;10.27;65.53;101328.40;1741984;82;21364;-56
2022/04/28 04:59:58;;;;;;;9.20;4.20;;;;;;;10.40;65.30;101333.86;1696772;83;21366;-57
2022/04/28 05:03:13;;;;;;;10.45;3.50;;;;;;;10.53;65.30;101327.53;1730998;80;21197;-54
2022/04/28 05:06:21;;;;;;;9.90;3.72;;;;;;;10.67;64.96;101328.92;1688661;83;21350;-55
2022/04/28 05:09:34;;;;;;;5.22;3.15;;;;;;;10.82;64.79;101335.58;1703140;82;21246;-53
2022/04/28 05:12:40;;;;;;;11.40;7.08;;;;;;;10.96;64.49;101340.52;1670695;85;21314;-53
2022/04/28 05:15:51;;;;;;;7.15;3.70;;;;;;;11.12;63.94;101339.82;1701650;84;21213;-53
2022/04/28 05:19:08;;;;;;;6.78;3.40;;;;;;;11.25;63.69;101345.78;1711943;82;21255;-53
2022/04/28 05:22:15;;;;;;;7.75;2.85;;;;;;;11.35;63.12;101343.30;1689423;83;21199;-53
2022/04/28 05:25:40;;;;;;;7.67;3.30;;;;;;;11.48;62.62;101345.67;1671135;86;21734;-52
2022/04/28 05:29:06;;;;;;;5.53;2.65;;;;;;;11.59;61.78;101335.29;1716918;83;21219;-54
2022/04/28 05:32:21;;;;;;;9.45;2.98;;;;;;;11.71;61.11;101341.42;1690980;83;21206;-52
2022/04/28 05:35:38;;;;;;;6.35;2.52;;;;;;;11.81;60.25;101354.55;1664936;84;21239;-53
2022/04/28 05:38:46;;;;;;;6.87;2.40;;;;;;;11.89;59.61;101347.21;1690316;83;21222;-53
2022/04/28 05:41:55;;;;;;;31.62;14.95;;;;;;;12.02;59.14;101350.89;1708090;82;21207;-53
2022/04/28 05:48:28;;;;;;;7.42;2.37;;;;;;;12.25;58.08;101349.34;1700504;83;21890;-57
2022/04/28 05:51:40;;;;;;;5.37;2.08;;;;;;;12.42;57.40;101344.28;1694678;83;21336;-57
2022/04/28 05:54:47;;;;;;;3.37;1.87;;;;;;;12.59;55.86;101347.44;1731538;82;21214;-57
2022/04/28 05:57:55;;;;;;;3.47;1.92;;;;;;;12.74;54.94;101347.17;1712440;83;21187;-56
2022/04/28 06:01:04;;;;;;;7.25;1.95;;;;;;;12.89;54.29;101352.36;1683971;85;21311;-57
2022/04/28 06:04:13;;;;;;;2.70;1.65;;;;;;;13.04;53.65;101353.48;1701449;83;21589;-57
2022/04/28 06:07:22;;;;;;;2.47;1.30;;;;;;;13.19;52.64;101344.91;1713672;83;21374;-57
2022/04/28 06:10:35;;;;;;;2.27;1.47;;;;;;;13.34;51.47;101345.09;1738736;80;21216;-56
2022/04/28 06:13:45;;;;;;;2.23;1.30;;;;;;;13.49;51.13;101355.25;1736433;82;21279;-57
2022/04/28 06:17:06;;;;;;;2.87;1.45;;;;;;;13.63;49.74;101367.98;1736984;82;21197;-58
2022/04/28 06:20:14;;;;;;;6.78;2.80;;;;;;;13.76;48.01;101368.34;1722425;82;21231;-56
2022/04/28 06:23:25;;;;;;;2.25;1.25;;;;;;;13.88;47.07;101371.95;1726529;82;21733;-57
2022/04/28 06:26:32;;;;;;;5.08;1.50;;;;;;;14.00;46.93;101364.20;1722281;82;21216;-56
2022/04/28 06:29:39;;;;;;;2.77;1.30;;;;;;;14.10;47.37;101353.84;1713704;83;21214;-57
2022/04/28 06:32:47;;;;;;;6.47;1.32;;;;;;;14.20;46.43;101360.02;1748622;82;21221;-58
2022/04/28 06:36:13;;;;;;;1.42;0.98;;;;;;;14.31;45.30;101358.31;1687573;85;21243;-56
2022/04/28 06:39:22;;;;;;;3.10;1.20;;;;;;;14.37;44.03;101358.98;1667252;85;21235;-56
2022/04/28 06:42:29;;;;;;;1.37;1.02;;;;;;;14.41;43.01;101358.98;1709820;81;21220;-56
2022/04/28 06:45:37;;;;;;;2.05;1.40;;;;;;;14.49;43.45;101376.87;1732168;82;21514;-57
2022/04/28 06:49:01;;;;;;;2.27;1.67;;;;;;;14.60;41.70;101371.81;1747066;82;21204;-57
2022/04/28 06:52:18;;;;;;;2.77;1.12;;;;;;;14.69;41.57;101371.27;1725856;81;21250;-54
2022/04/28 06:55:35;;;;;;;3.72;1.30;;;;;;;14.77;40.32;101377.62;1709027;83;21216;-52
2022/04/28 06:58:42;;;;;;;3.98;1.30;;;;;;;14.88;40.38;101377.23;1722583;82;21891;-53
2022/04/28 07:01:55;;;;;;;1.30;1.00;;;;;;;14.97;40.61;101367.00;1735546;82;21339;-53
2022/04/28 07:05:11;;;;;;;1.47;0.93;;;;;;;15.03;40.38;101364.38;1735770;82;21347;-54
2022/04/28 07:08:23;;;;;;;1.12;0.70;;;;;;;15.13;39.63;101357.26;1739721;82;21236;-53
2022/04/28 07:11:35;;;;;;;2.90;1.70;;;;;;;15.20;38.71;101369.30;1739944;82;21401;-53
2022/04/28 07:14:43;;;;;;;1.47;1.00;;;;;;;15.26;38.12;101368.56;1711687;82;21271;-52
2022/04/28 07:18:06;;;;;;;4.25;1.00;;;;;;;15.30;36.58;101370.45;1710101;84;21215;-53
2022/04/28 07:21:13;;;;;;;3.17;0.90;;;;;;;15.35;36.74;101372.14;1710017;84;21224;-53
2022/04/28 07:24:22;;;;;;;2.30;1.10;;;;;;;15.40;37.88;101366.94;1738040;82;21232;-53
2022/04/28 07:27:28;;;;;;;2.15;1.00;;;;;;;15.46;37.53;101373.97;1738887;82;21201;-52
2022/04/28 07:30:39;;;;;;;1.02;0.70;;;;;;;15.57;37.46;101359.74;1738617;81;21220;-53
2022/04/28 07:33:49;;;;;;;2.70;0.90;;;;;;;15.65;36.54;101355.53;1737264;82;21271;-55
2022/04/28 07:37:05;;;;;;;1.95;1.10;;;;;;;15.68;36.14;101363.99;1724728;81;21720;-53
2022/04/28 07:40:32;;;;;;;0.75;0.65;;;;;;;15.73;35.73;101380.87;1667333;84;21256;-52
2022/04/28 07:43:42;;;;;;;9.05;1.50;;;;;;;15.76;36.62;101366.14;1661232;84;21916;-56
2022/04/28 07:46:47;;;;;;;8.73;5.05;;;;;;;15.80;36.73;101367.50;1727936;82;21741;-58
2022/04/28 07:49:56;;;;;;;3.25;1.57;;;;;;;15.87;37.28;101357.41;1731567;82;21815;-57
2022/04/28 07:53:02;;;;;;;1.65;1.00;;;;;;;15.94;37.42;101357.53;1725066;82;21239;-58
2022/04/28 07:56:18;;;;;;;3.10;1.12;;;;;;;16.04;36.18;101363.15;1731415;82;21754;-54
2022/04/28 07:59:22;;;;;;;2.15;1.12;;;;;;;16.06;36.25;101354.12;1704894;83;22058;-56
2022/04/28 08:02:37;;;;;;;4.10;1.12;;;;;;;16.13;36.28;101355.11;1720342;83;21252;-57
2022/04/28 08:05:46;;;;;;;1.57;1.00;;;;;;;16.21;36.49;101351.39;1758045;80;21224;-58
2022/04/28 08:08:53;;;;;;;1.98;1.00;;;;;;;16.30;36.04;101358.02;1717219;82;21920;-57
2022/04/28 08:11:59;;;;;;;3.58;1.10;;;;;;;16.40;34.08;101354.47;1734637;82;21224;-57
2022/04/28 08:15:07;;;;;;;2.50;0.90;;;;;;;16.53;34.36;101355.73;1730148;82;21225;-59
2022/04/28 08:18:14;;;;;;;1.87;1.12;;;;;;;16.63;33.61;101348.02;1729761;83;21315;-58
2022/04/28 08:21:21;;;;;;;0.95;0.70;;;;;;;16.68;33.64;101353.84;1720552;83;21328;-59
2022/04/28 08:24:32;;;;;;;1.50;0.68;;;;;;;16.78;33.09;101340.55;1728626;82;21918;-59
2022/04/28 08:27:41;;;;;;;1.47;0.93;;;;;;;16.86;33.03;101328.00;1722423;82;21212;-56
2022/04/28 08:30:52;;;;;;;4.05;1.30;;;;;;;16.81;32.41;101332.73;1724798;82;21219;-60
2022/04/28 08:34:05;;;;;;;2.92;1.22;;;;;;;16.82;33.74;101337.23;1725758;82;21243;-59
2022/04/28 08:37:18;;;;;;;;;;;;;;;16.90;33.01;101343.17;1699978;84;21358;-61
2022/04/28 08:40:33;;;;;;;1.75;0.90;;;;;;;16.96;32.91;101342.39;1706130;83;20232;-59
2022/04/28 08:43:42;;;;;;;2.05;0.82;;;;;;;16.99;32.56;101335.95;1720192;82;21220;-60
2022/04/28 08:46:52;;;;;;;4.55;1.00;;;;;;;17.03;32.75;101330.34;1700267;83;21173;-58
2022/04/28 08:50:01;;;;;;;2.87;1.20;;;;;;;17.06;33.13;101339.64;1729070;83;21178;-59
2022/04/28 08:53:12;;;;;;;4.70;1.55;;;;;;;17.11;32.59;101331.62;1727945;83;21751;-57
2022/04/28 08:56:19;;;;;;;1.05;0.85;;;;;;;17.17;32.24;101350.75;1706151;83;21856;-58
2022/04/28 08:59:29;;;;;;;1.65;0.80;;;;;;;17.19;32.15;101338.94;1710634;82;21212;-59
2022/04/28 09:02:39;;;;;;;13.00;1.60;;;;;;;17.23;31.59;101325.05;1736424;81;21248;-60
2022/04/28 09:05:49;;;;;;;1.70;1.20;;;;;;;17.28;31.38;101331.70;1722911;81;21742;-59
2022/04/28 09:08:58;;;;;;;5.33;1.40;;;;;;;17.35;31.21;101324.85;1683495;82;21236;-57
2022/04/28 09:12:10;;;;;;;3.90;0.80;;;;;;;17.42;31.40;101323.03;1647458;85;21204;-59
2022/04/28 09:15:23;;;;;;;4.08;1.22;;;;;;;17.48;30.93;101334.20;1672475;85;21224;-58
2022/04/28 09:18:31;;;;;;;8.25;1.07;;;;;;;17.53;31.31;101334.99;1672798;85;21240;-58
2022/04/28 09:21:42;;;;;;;1.95;0.82;;;;;;;17.62;31.41;101340.72;1681845;83;21229;-58
2022/04/28 09:24:54;;;;;;;1.70;1.07;;;;;;;17.65;31.45;101326.47;1681138;84;21820;-58
2022/04/28 09:28:02;;;;;;;2.58;1.00;;;;;;;17.71;31.92;101325.16;1691635;83;21796;-59
2022/04/28 09:31:10;;;;;;;3.50;1.10;;;;;;;17.80;31.72;101321.20;1692325;83;21193;-58
2022/04/28 09:34:22;;;;;;;1.20;0.80;;;;;;;17.89;31.41;101322.77;1683518;84;21789;-58
2022/04/28 09:37:38;;;;;;;3.85;1.07;;;;;;;17.98;31.84;101319.85;1690218;84;21293;-57
2022/04/28 09:44:12;;;;;;;1.95;1.00;;;;;;;18.17;31.12;101310.28;1701787;84;21224;-59
2022/04/28 09:47:21;;;;;;;1.30;0.90;;;;;;;18.26;30.90;101322.95;1687810;84;21749;-59
2022/04/28 09:50:30;;;;;;;2.22;1.00;;;;;;;18.21;30.99;101319.92;1701782;84;21228;-60
2022/04/28 09:53:39;;;;;;;1.90;1.00;;;;;;;18.26;31.56;101314.63;1666121;84;21264;-58
2022/04/28 09:57:06;;;;;;;3.60;2.52;;;;;;;18.39;31.18;101330.00;1701508;84;21178;-59
2022/04/28 10:00:14;;;;;;;2.05;1.10;;;;;;;18.52;30.43;101333.39;1681895;84;22100;-59
2022/04/28 10:03:23;;;;;;;1.62;1.37;;;;;;;18.64;30.27;101330.34;1675837;85;21230;-58
2022/04/28 10:06:34;;;;;;;2.22;0.93;;;;;;;18.90;30.43;101329.94;1673387;85;21731;-59
2022/04/28 10:09:51;;;;;;;3.90;1.25;;;;;;;19.25;31.00;101326.02;1696175;82;21204;-61
2022/04/28 10:12:59;;;;;;;2.08;0.95;;;;;;;19.54;30.41;101329.53;1718912;83;21271;-60
2022/04/28 10:16:23;;;;;;;3.25;1.17;;;;;;;19.56;29.60;101337.12;1713638;82;21239;-60
2022/04/28 10:19:41;;;;;;;1.62;1.00;;;;;;;19.26;30.17;101340.25;1732755;82;21339;-58
2022/04/28 10:22:53;;;;;;;2.30;1.10;;;;;;;19.08;30.17;101338.56;1718824;82;21248;-52
2022/04/28 10:33:10;;;;;;;3.37;1.10;;;;;;;19.44;30.63;101329.09;1723436;82;21251;-53
2022/04/28 10:36:27;;;;;;;3.42;1.17;;;;;;;19.54;30.30;101326.75;1707861;84;21362;-56
2022/04/28 10:39:48;;;;;;;3.35;1.05;;;;;;;19.54;30.37;101319.28;1707476;84;21243;-58
2022/04/28 10:43:00;;;;;;;1.55;1.07;;;;;;;19.49;29.83;101331.55;1721020;82;21189;-58
2022/04/28 10:46:22;;;;;;;;;;;;;;;19.42;29.79;101332.61;1719551;82;21726;-58
2022/04/28 10:49:29;;;;;;;3.55;1.10;;;;;;;19.38;29.59;101328.56;1723821;82;20672;-59
2022/04/28 10:52:37;;;;;;;2.05;1.07;;;;;;;19.35;29.08;101328.42;1685609;84;21573;-59
2022/04/28 10:55:49;;;;;;;4.17;1.47;;;;;;;19.40;28.95;101325.88;1715911;81;21208;-58
2022/04/28 10:58:56;;;;;;;2.20;0.68;;;;;;;19.66;28.80;101322.30;1719823;82;21867;-58
2022/04/28 11:02:03;;;;;;;5.28;1.00;;;;;;;19.91;29.04;101310.34;1709361;81;21554;-59
2022/04/28 11:05:12;;;;;;;4.12;1.27;;;;;;;20.39;29.11;101314.58;1725710;82;21181;-58
2022/04/28 11:08:32;;;;;;;3.55;1.55;;;;;;;20.41;28.41;101320.80;1722118;82;21260;-57
2022/04/28 11:11:52;;;;;;;2.10;1.05;;;;;;;20.12;28.72;101312.05;1697815;82;21839;-58
2022/04/28 11:15:17;;;;;;;1.15;0.90;;;;;;;19.94;28.79;101308.52;1698971;83;21214;-62
2022/04/28 11:18:31;;;;;;;3.35;1.07;;;;;;;19.76;28.91;101304.13;1712970;83;21223;-58
2022/04/28 11:21:41;;;;;;;0.88;0.80;;;;;;;19.59;29.41;101312.56;1724312;82;21354;-59
2022/04/28 11:25:02;;;;;;;5.83;1.42;;;;;;;19.47;29.21;101311.48;1704955;83;21293;-61
2022/04/28 11:28:10;;;;;;;1.72;0.98;;;;;;;19.55;30.05;101304.31;1695306;82;21270;-61
2022/04/28 11:31:25;;;;;;;1.50;0.78;;;;;;;20.08;29.82;101304.66;1703350;82;21183;-61
2022/04/28 11:34:34;;;;;;;1.47;0.90;;;;;;;20.67;28.74;101297.09;1710192;82;21330;-59
2022/04/28 11:37:46;;;;;;;2.17;0.90;;;;;;;21.26;28.17;101294.06;1721748;82;21219;-58
2022/04/28 11:40:56;;;;;;;3.08;1.00;;;;;;;21.60;27.26;101292.20;1700317;82;21239;-56
2022/04/28 11:44:08;;;;;;;2.75;1.07;;;;;;;21.62;27.49;101293.38;1703552;82;21298;-57
2022/04/28 11:47:12;;;;;;;2.25;1.02;;;;;;;21.39;26.52;101282.80;1717947;81;21266;-56
2022/04/28 11:50:34;;;;;;;3.42;1.05;;;;;;;21.07;26.39;101284.41;1706899;82;21207;-58
2022/04/28 11:53:52;;;;;;;4.95;0.88;;;;;;;20.93;26.91;101300.27;1697122;82;21223;-58
2022/04/28 11:57:01;;;;;;;8.13;1.20;;;;;;;20.91;26.86;101285.75;1703286;83;21206;-57
2022/04/28 12:00:07;;;;;;;1.42;0.90;;;;;;;21.00;26.94;101294.19;1678482;84;21248;-57
2022/04/28 12:03:14;;;;;;;2.72;1.00;;;;;;;20.83;27.02;101291.56;1715276;83;21196;-54
2022/04/28 12:06:24;;;;;;;0.98;0.85;;;;;;;20.79;26.91;101287.49;1689068;85;21251;-53
2022/04/28 12:19:34;;;;;;;1.87;1.20;;;;;;;21.25;26.68;101274.22;1699528;82;21574;-51
2022/04/28 12:22:51;;;;;;;1.50;1.00;;;;;;;21.46;26.54;101276.67;1711296;83;21226;-51
2022/04/28 12:26:02;;;;;;;3.55;1.00;;;;;;;21.56;26.03;101282.61;1711581;83;21203;-55
2022/04/28 12:29:24;;;;;;;1.75;1.00;;;;;;;21.60;25.65;101279.66;1689731;84;21646;-52
2022/04/28 12:32:33;;;;;;;3.92;0.93;;;;;;;21.43;25.91;101271.55;1711705;84;21708;-53
2022/04/28 12:35:44;;;;;;;2.17;1.10;;;;;;;21.30;25.95;101277.73;1711686;83;21203;-54
2022/04/28 12:38:56;;;;;;;1.12;0.80;;;;;;;21.10;26.55;101275.61;1688126;84;21219;-53
2022/04/28 12:42:05;;;;;;;2.30;0.93;;;;;;;20.88;26.63;101272.27;1720495;82;21729;-53
2022/04/28 12:45:14;;;;;;;2.25;1.27;;;;;;;20.65;26.75;101279.75;1700253;83;21215;-53
2022/04/28 12:48:37;;;;;;;2.25;0.90;;;;;;;20.49;26.99;101284.92;1714520;83;21394;-54
2022/04/28 12:51:55;;;;;;;8.70;1.30;;;;;;;20.42;27.26;101286.33;1724486;80;21820;-55
2022/04/28 12:55:13;;;;;;;2.17;0.90;;;;;;;20.50;27.21;101274.13;1715235;83;21208;-53
2022/04/28 12:58:21;;;;;;;3.52;1.05;;;;;;;20.72;27.11;101275.55;1715181;83;21878;-55
2022/04/28 13:01:29;;;;;;;2.05;0.82;;;;;;;20.96;26.90;101275.33;1726391;82;21717;-55
2022/04/28 13:04:35;;;;;;;1.30;0.88;;;;;;;21.10;26.97;101279.78;1731681;80;21231;-55
2022/04/28 13:07:42;;;;;;;2.35;0.93;;;;;;;21.17;27.17;101271.70;1746574;82;21223;-56
2022/04/28 13:10:50;;;;;;;1.55;0.90;;;;;;;21.38;26.72;101269.10;1751850;82;21183;-56
2022/04/28 13:13:56;;;;;;;4.20;1.15;;;;;;;21.48;26.43;101273.66;1712215;82;21738;-56
2022/04/28 13:17:05;;;;;;;3.98;0.93;;;;;;;21.47;26.22;101264.99;1734794;82;21219;-57
2022/04/28 13:20:13;;;;;;;1.52;1.10;;;;;;;21.55;26.46;101269.73;1686221;84;21219;-56
2022/04/28 13:23:20;;;;;;;6.17;1.00;;;;;;;21.64;26.17;101271.19;1711466;83;21229;-56
2022/04/28 13:26:27;;;;;;;1.50;0.72;;;;;;;21.66;26.12;101266.21;1746634;81;21176;-56
2022/04/28 13:29:37;;;;;;;1.92;1.00;;;;;;;21.82;25.99;101264.29;1712466;83;21629;-55
2022/04/28 13:32:43;;;;;;;1.30;0.88;;;;;;;21.93;25.68;101272.44;1699496;83;21247;-52
2022/04/28 13:35:51;;;;;;;3.08;1.10;;;;;;;21.93;25.21;101264.94;1743784;81;21227;-53
2022/04/28 13:38:57;;;;;;;1.62;0.80;;;;;;;21.78;25.46;101260.27;1696849;82;21279;-58
2022/04/28 13:42:05;;;;;;;3.52;0.90;;;;;;;21.66;25.50;101263.42;1734442;82;21183;-57
2022/04/28 13:45:14;;;;;;;2.08;1.00;;;;;;;21.64;25.79;101253.06;1683812;85;21311;-58
2022/04/28 13:48:20;;;;;;;2.50;0.85;;;;;;;21.55;25.77;101256.36;1725292;80;21274;-58
2022/04/28 13:51:29;;;;;;;5.28;0.90;;;;;;;21.37;26.00;101264.63;1707661;83;21217;-58
2022/04/28 13:54:57;;;;;;;2.98;0.93;;;;;;;21.26;26.32;101260.63;1762241;80;21156;-58
2022/04/28 13:58:09;;;;;;;4.92;1.17;;;;;;;21.18;26.67;101260.89;1733204;80;21230;-59
2022/04/28 14:01:17;;;;;;;3.85;1.15;;;;;;;21.19;26.70;101261.20;1731388;82;21255;-60
2022/04/28 14:04:25;;;;;;;1.95;1.15;;;;;;;21.22;26.60;101259.36;1726767;80;21608;-61
2022/04/28 14:07:36;;;;;;;2.17;1.00;;;;;;;21.18;27.04;101260.89;1736907;80;21275;-60
2022/04/28 14:10:40;;;;;;;2.00;1.02;;;;;;;21.20;27.13;101264.28;1711249;83;21582;-61
2022/04/28 14:13:46;;;;;;;1.95;1.30;;;;;;;21.25;27.40;101254.73;1738826;82;21180;-61
2022/04/28 14:16:53;;;;;;;1.85;1.10;;;;;;;21.26;27.65;101257.84;1703222;82;21204;-59
2022/04/28 14:20:00;;;;;;;2.20;1.12;;;;;;;21.21;27.65;101259.05;1719964;82;21872;-62
2022/04/28 14:23:00;;;;;;;0.98;0.75;;;;;;;21.27;27.55;101255.89;1736089;81;21368;-61
2022/04/28 14:26:06;;;;;;;4.62;1.10;;;;;;;21.34;27.44;101253.41;1726617;82;21291;-61
2022/04/28 14:29:14;;;;;;;2.47;1.07;;;;;;;21.32;26.97;101258.34;1701913;84;21212;-61
2022/04/28 14:32:20;;;;;;;2.00;1.00;;;;;;;21.40;27.16;101253.89;1701037;84;21737;-61
2022/04/28 14:35:29;;;;;;;2.67;1.07;;;;;;;21.45;26.90;101249.89;1709748;81;21192;-61
2022/04/28 14:38:36;;;;;;;1.50;1.07;;;;;;;21.50;26.91;101248.65;1746027;82;21235;-61
2022/04/28 14:41:43;;;;;;;3.05;0.98;;;;;;;21.44;26.72;101245.38;1749841;80;21205;-62
2022/04/28 14:44:50;;;;;;;2.37;1.00;;;;;;;21.40;27.13;101248.31;1701439;83;21244;-62
2022/04/28 14:47:56;;;;;;;2.45;1.20;;;;;;;21.45;27.22;101240.67;1729248;82;21211;-61
2022/04/28 14:54:27;;;;;;;5.83;1.37;;;;;;;21.65;26.65;101238.56;1709815;82;21216;-62
2022/04/28 14:57:38;;;;;;;3.00;1.12;;;;;;;21.86;26.49;101246.04;1714665;83;21417;-60
2022/04/28 15:00:44;;;;;;;2.83;0.98;;;;;;;22.08;26.37;101238.09;1724435;80;21255;-61
2022/04/28 15:03:50;;;;;;;3.85;0.95;;;;;;;22.02;26.25;101238.45;1713662;83;21393;-61
2022/04/28 15:06:57;;;;;;;3.02;1.10;;;;;;;22.07;26.24;101238.62;1721371;82;21809;-63
2022/04/28 15:10:04;;;;;;;2.47;1.40;;;;;;;22.12;26.35;101236.00;1729669;82;21196;-61
2022/04/28 15:13:12;;;;;;;3.10;0.98;;;;;;;22.12;26.58;101233.22;1713748;83;21279;-61
2022/04/28 15:16:22;;;;;;;4.03;1.52;;;;;;;21.96;26.23;101235.20;1712029;83;21232;-62
2022/04/28 15:19:30;;;;;;;2.70;1.70;;;;;;;21.75;26.86;101239.81;1716295;83;21224;-60
2022/04/28 15:22:41;;;;;;;4.40;1.80;;;;;;;21.55;27.07;101239.08;1724321;82;21211;-61
2022/04/28 15:25:47;;;;;;;19.32;3.50;;;;;;;21.40;27.10;101239.09;1715725;83;21200;-60
2022/04/28 15:28:55;;;;;;;7.55;2.83;;;;;;;21.23;27.24;101237.37;1713763;83;21208;-61